sensor_id;sensor_type;location;lat;lon;timestamp;temperature;humidity
44047;DHT22;29713;-33.888;151.150;2022-08-23T00:02:11;19.60;99.90
44047;DHT22;29713;-33.888;151.150;2022-08-23T00:04:42;19.80;99.90
44047;DHT22;29713;-33.888;151.150;2022-08-23T00:07:13;19.90;99.90
44047;DHT22;29713;-33.888;151.150;2022-08-23T00:09:41;20.10;99.90
44047;DHT22;29713;-33.888;151.150;2022-08-23T00:12:20;20.30;99.90
44047;DHT22;29713;-33.888;151.150;2022-08-23T00:14:52;20.50;99.90
44047;DHT22;29713;-33.888;151.150;2022-08-23T00:17:20;20.60;99.90
44047;DHT22;29713;-33.888;151.150;2022-08-23T00:19:47;20.70;99.90
44047;DHT22;29713;-33.888;151.150;2022-08-23T00:22:15;20.80;99.90
44047;DHT22;29713;-33.888;151.150;2022-08-23T00:24:43;20.90;99.90
44047;DHT22;29713;-33.888;151.150;2022-08-23T00:27:13;21.00;99.90
44047;DHT22;29713;-33.888;151.150;2022-08-23T00:29:49;21.10;99.90
44047;DHT22;29713;-33.888;151.150;2022-08-23T00:32:25;21.30;99.90
44047;DHT22;29713;-33.888;151.150;2022-08-23T00:34:53;21.40;99.90
44047;DHT22;29713;-33.888;151.150;2022-08-23T00:37:22;21.50;99.90
44047;DHT22;29713;-33.888;151.150;2022-08-23T00:39:49;21.70;99.90
44047;DHT22;29713;-33.888;151.150;2022-08-23T00:42:25;21.70;99.90
44047;DHT22;29713;-33.888;151.150;2022-08-23T00:45:15;21.80;99.90
44047;DHT22;29713;-33.888;151.150;2022-08-23T00:48:02;21.80;99.90
44047;DHT22;29713;-33.888;151.150;2022-08-23T00:50:40;21.80;99.90
44047;DHT22;29713;-33.888;151.150;2022-08-23T00:53:16;21.90;99.90
44047;DHT22;29713;-33.888;151.150;2022-08-23T00:55:46;21.90;99.90
44047;DHT22;29713;-33.888;151.150;2022-08-23T00:58:16;22.00;99.90
44047;DHT22;29713;-33.888;151.150;2022-08-23T01:00:45;22.20;99.90
44047;DHT22;29713;-33.888;151.150;2022-08-23T01:03:13;22.40;99.90
44047;DHT22;29713;-33.888;151.150;2022-08-23T01:05:58;22.40;99.90
44047;DHT22;29713;-33.888;151.150;2022-08-23T01:08:29;22.40;99.90
44047;DHT22;29713;-33.888;151.150;2022-08-23T01:11:03;22.60;99.90
44047;DHT22;29713;-33.888;151.150;2022-08-23T01:13:40;22.70;99.90
44047;DHT22;29713;-33.888;151.150;2022-08-23T01:16:16;22.80;99.90
44047;DHT22;29713;-33.888;151.150;2022-08-23T01:18:45;23.10;99.90
44047;DHT22;29713;-33.888;151.150;2022-08-23T01:21:39;23.20;99.90
44047;DHT22;29713;-33.888;151.150;2022-08-23T01:24:06;23.00;99.90
44047;DHT22;29713;-33.888;151.150;2022-08-23T01:26:34;23.10;99.90
44047;DHT22;29713;-33.888;151.150;2022-08-23T01:29:04;23.30;99.90
44047;DHT22;29713;-33.888;151.150;2022-08-23T01:31:32;23.40;99.90
44047;DHT22;29713;-33.888;151.150;2022-08-23T01:34:06;23.50;99.90
44047;DHT22;29713;-33.888;151.150;2022-08-23T01:36:34;23.50;99.90
44047;DHT22;29713;-33.888;151.150;2022-08-23T01:39:03;23.60;99.90
44047;DHT22;29713;-33.888;151.150;2022-08-23T01:41:31;23.70;99.90
44047;DHT22;29713;-33.888;151.150;2022-08-23T01:43:59;23.80;99.90
44047;DHT22;29713;-33.888;151.150;2022-08-23T01:46:26;24.00;99.90
44047;DHT22;29713;-33.888;151.150;2022-08-23T01:48:54;24.20;98.50
44047;DHT22;29713;-33.888;151.150;2022-08-23T01:51:22;24.30;98.70
44047;DHT22;29713;-33.888;151.150;2022-08-23T01:53:49;24.20;98.10
44047;DHT22;29713;-33.888;151.150;2022-08-23T01:56:18;24.10;98.40
44047;DHT22;29713;-33.888;151.150;2022-08-23T01:58:48;23.80;98.50
44047;DHT22;29713;-33.888;151.150;2022-08-23T02:01:16;23.50;98.90
44047;DHT22;29713;-33.888;151.150;2022-08-23T02:03:44;23.40;99.20
44047;DHT22;29713;-33.888;151.150;2022-08-23T02:06:12;23.60;99.20
44047;DHT22;29713;-33.888;151.150;2022-08-23T02:08:39;23.70;98.40
44047;DHT22;29713;-33.888;151.150;2022-08-23T02:11:25;23.80;98.60
44047;DHT22;29713;-33.888;151.150;2022-08-23T02:13:58;24.20;97.50
44047;DHT22;29713;-33.888;151.150;2022-08-23T02:16:32;24.30;97.80
44047;DHT22;29713;-33.888;151.150;2022-08-23T02:19:00;24.40;97.60
44047;DHT22;29713;-33.888;151.150;2022-08-23T02:21:29;24.00;97.70
44047;DHT22;29713;-33.888;151.150;2022-08-23T02:24:08;23.40;98.70
44047;DHT22;29713;-33.888;151.150;2022-08-23T02:26:38;23.00;99.90
44047;DHT22;29713;-33.888;151.150;2022-08-23T02:29:06;22.50;99.90
44047;DHT22;29713;-33.888;151.150;2022-08-23T02:31:34;22.10;99.90
44047;DHT22;29713;-33.888;151.150;2022-08-23T02:34:02;21.70;99.90
44047;DHT22;29713;-33.888;151.150;2022-08-23T02:36:29;21.20;99.90
44047;DHT22;29713;-33.888;151.150;2022-08-23T02:38:57;20.80;99.90
44047;DHT22;29713;-33.888;151.150;2022-08-23T02:41:24;20.30;99.90
44047;DHT22;29713;-33.888;151.150;2022-08-23T02:43:53;20.00;99.90
44047;DHT22;29713;-33.888;151.150;2022-08-23T02:46:21;19.80;99.90
44047;DHT22;29713;-33.888;151.150;2022-08-23T02:48:49;19.60;99.90
44047;DHT22;29713;-33.888;151.150;2022-08-23T02:51:16;19.60;99.90
44047;DHT22;29713;-33.888;151.150;2022-08-23T02:53:44;19.60;99.90
44047;DHT22;29713;-33.888;151.150;2022-08-23T02:56:12;19.60;99.90
44047;DHT22;29713;-33.888;151.150;2022-08-23T02:58:40;19.70;99.90
44047;DHT22;29713;-33.888;151.150;2022-08-23T03:01:18;19.70;99.90
44047;DHT22;29713;-33.888;151.150;2022-08-23T03:03:46;19.60;99.90
44047;DHT22;29713;-33.888;151.150;2022-08-23T03:06:14;19.30;99.90
44047;DHT22;29713;-33.888;151.150;2022-08-23T03:08:42;18.90;99.90
44047;DHT22;29713;-33.888;151.150;2022-08-23T03:11:17;18.50;99.90
44047;DHT22;29713;-33.888;151.150;2022-08-23T03:13:46;18.30;99.90
44047;DHT22;29713;-33.888;151.150;2022-08-23T03:16:15;18.00;99.90
44047;DHT22;29713;-33.888;151.150;2022-08-23T03:18:42;17.90;99.90
44047;DHT22;29713;-33.888;151.150;2022-08-23T03:21:11;18.00;99.90
44047;DHT22;29713;-33.888;151.150;2022-08-23T03:23:39;18.50;99.90
44047;DHT22;29713;-33.888;151.150;2022-08-23T03:26:09;19.10;99.90
44047;DHT22;29713;-33.888;151.150;2022-08-23T03:28:38;19.30;99.90
44047;DHT22;29713;-33.888;151.150;2022-08-23T03:31:06;19.10;99.90
44047;DHT22;29713;-33.888;151.150;2022-08-23T03:33:34;18.80;99.90
44047;DHT22;29713;-33.888;151.150;2022-08-23T03:36:05;18.50;99.90
44047;DHT22;29713;-33.888;151.150;2022-08-23T03:38:33;18.20;99.90
44047;DHT22;29713;-33.888;151.150;2022-08-23T03:41:01;17.70;99.90
44047;DHT22;29713;-33.888;151.150;2022-08-23T03:43:28;17.40;99.90
44047;DHT22;29713;-33.888;151.150;2022-08-23T03:45:55;16.90;99.90
44047;DHT22;29713;-33.888;151.150;2022-08-23T03:48:23;16.50;99.90
44047;DHT22;29713;-33.888;151.150;2022-08-23T03:50:50;16.30;99.90
44047;DHT22;29713;-33.888;151.150;2022-08-23T03:53:18;16.10;99.90
44047;DHT22;29713;-33.888;151.150;2022-08-23T03:55:46;15.90;99.90
44047;DHT22;29713;-33.888;151.150;2022-08-23T03:58:13;15.80;99.90
44047;DHT22;29713;-33.888;151.150;2022-08-23T04:00:41;15.60;99.90
44047;DHT22;29713;-33.888;151.150;2022-08-23T04:03:08;15.40;99.90
44047;DHT22;29713;-33.888;151.150;2022-08-23T04:05:35;15.20;99.90
44047;DHT22;29713;-33.888;151.150;2022-08-23T04:08:10;15.20;99.90
44047;DHT22;29713;-33.888;151.150;2022-08-23T04:10:39;15.10;99.90
44047;DHT22;29713;-33.888;151.150;2022-08-23T04:13:07;15.00;99.90
44047;DHT22;29713;-33.888;151.150;2022-08-23T04:15:36;14.90;99.90
44047;DHT22;29713;-33.888;151.150;2022-08-23T04:18:04;14.80;99.90
44047;DHT22;29713;-33.888;151.150;2022-08-23T04:20:31;14.70;99.90
44047;DHT22;29713;-33.888;151.150;2022-08-23T04:23:00;14.70;99.90
44047;DHT22;29713;-33.888;151.150;2022-08-23T04:25:28;14.60;99.90
44047;DHT22;29713;-33.888;151.150;2022-08-23T04:27:59;14.50;99.90
44047;DHT22;29713;-33.888;151.150;2022-08-23T04:30:27;14.40;99.90
44047;DHT22;29713;-33.888;151.150;2022-08-23T04:32:54;14.20;99.90
44047;DHT22;29713;-33.888;151.150;2022-08-23T04:35:21;14.20;99.90
44047;DHT22;29713;-33.888;151.150;2022-08-23T04:37:49;14.20;99.90
44047;DHT22;29713;-33.888;151.150;2022-08-23T04:40:16;14.10;99.90
44047;DHT22;29713;-33.888;151.150;2022-08-23T04:43:02;14.00;99.90
44047;DHT22;29713;-33.888;151.150;2022-08-23T04:45:30;13.80;99.90
44047;DHT22;29713;-33.888;151.150;2022-08-23T04:47:58;13.70;99.90
44047;DHT22;29713;-33.888;151.150;2022-08-23T04:50:25;13.50;99.90
44047;DHT22;29713;-33.888;151.150;2022-08-23T04:52:52;13.50;99.90
44047;DHT22;29713;-33.888;151.150;2022-08-23T04:55:20;13.40;99.90
44047;DHT22;29713;-33.888;151.150;2022-08-23T04:57:47;13.40;99.90
44047;DHT22;29713;-33.888;151.150;2022-08-23T05:00:15;13.30;99.90
44047;DHT22;29713;-33.888;151.150;2022-08-23T05:02:43;13.20;99.90
44047;DHT22;29713;-33.888;151.150;2022-08-23T05:05:12;13.20;99.90
44047;DHT22;29713;-33.888;151.150;2022-08-23T05:07:39;13.10;99.90
44047;DHT22;29713;-33.888;151.150;2022-08-23T05:10:08;13.10;99.90
44047;DHT22;29713;-33.888;151.150;2022-08-23T05:12:36;13.10;99.90
44047;DHT22;29713;-33.888;151.150;2022-08-23T05:15:05;13.00;99.90
44047;DHT22;29713;-33.888;151.150;2022-08-23T05:17:33;12.90;99.90
44047;DHT22;29713;-33.888;151.150;2022-08-23T05:20:02;12.80;99.90
44047;DHT22;29713;-33.888;151.150;2022-08-23T05:22:33;12.70;99.90
44047;DHT22;29713;-33.888;151.150;2022-08-23T05:25:01;12.60;99.90
44047;DHT22;29713;-33.888;151.150;2022-08-23T05:27:28;12.60;99.90
44047;DHT22;29713;-33.888;151.150;2022-08-23T05:29:56;12.60;99.90
44047;DHT22;29713;-33.888;151.150;2022-08-23T05:32:23;12.60;99.90
44047;DHT22;29713;-33.888;151.150;2022-08-23T05:34:51;12.60;99.90
44047;DHT22;29713;-33.888;151.150;2022-08-23T05:37:18;12.60;99.90
44047;DHT22;29713;-33.888;151.150;2022-08-23T05:39:45;12.60;99.90
44047;DHT22;29713;-33.888;151.150;2022-08-23T05:42:14;12.50;99.90
44047;DHT22;29713;-33.888;151.150;2022-08-23T05:44:43;12.50;99.90
44047;DHT22;29713;-33.888;151.150;2022-08-23T05:47:12;12.40;99.90
44047;DHT22;29713;-33.888;151.150;2022-08-23T05:49:40;12.40;99.90
44047;DHT22;29713;-33.888;151.150;2022-08-23T05:52:11;12.40;99.90
44047;DHT22;29713;-33.888;151.150;2022-08-23T05:54:39;12.40;99.90
44047;DHT22;29713;-33.888;151.150;2022-08-23T05:57:07;12.30;99.90
44047;DHT22;29713;-33.888;151.150;2022-08-23T05:59:35;12.40;99.90
44047;DHT22;29713;-33.888;151.150;2022-08-23T06:02:03;12.20;99.90
44047;DHT22;29713;-33.888;151.150;2022-08-23T06:04:31;12.20;99.90
44047;DHT22;29713;-33.888;151.150;2022-08-23T06:06:58;12.00;99.90
44047;DHT22;29713;-33.888;151.150;2022-08-23T06:09:26;12.00;99.90
44047;DHT22;29713;-33.888;151.150;2022-08-23T06:11:53;11.90;99.90
44047;DHT22;29713;-33.888;151.150;2022-08-23T06:14:21;12.00;99.90
44047;DHT22;29713;-33.888;151.150;2022-08-23T06:16:50;11.90;99.90
44047;DHT22;29713;-33.888;151.150;2022-08-23T06:19:18;11.80;99.90
44047;DHT22;29713;-33.888;151.150;2022-08-23T06:21:45;11.70;99.90
44047;DHT22;29713;-33.888;151.150;2022-08-23T06:24:13;11.80;99.90
44047;DHT22;29713;-33.888;151.150;2022-08-23T06:26:42;11.90;99.90
44047;DHT22;29713;-33.888;151.150;2022-08-23T06:29:13;12.00;99.90
44047;DHT22;29713;-33.888;151.150;2022-08-23T06:31:42;12.10;99.90
44047;DHT22;29713;-33.888;151.150;2022-08-23T06:34:17;12.10;99.90
44047;DHT22;29713;-33.888;151.150;2022-08-23T06:36:48;12.10;99.90
44047;DHT22;29713;-33.888;151.150;2022-08-23T06:39:17;12.00;99.90
44047;DHT22;29713;-33.888;151.150;2022-08-23T06:41:45;12.00;99.90
44047;DHT22;29713;-33.888;151.150;2022-08-23T06:44:14;11.80;99.90
44047;DHT22;29713;-33.888;151.150;2022-08-23T06:46:42;11.70;99.90
44047;DHT22;29713;-33.888;151.150;2022-08-23T06:49:10;11.70;99.90
44047;DHT22;29713;-33.888;151.150;2022-08-23T06:51:43;11.60;99.90
44047;DHT22;29713;-33.888;151.150;2022-08-23T06:54:13;11.40;99.90
44047;DHT22;29713;-33.888;151.150;2022-08-23T06:56:42;11.40;99.90
44047;DHT22;29713;-33.888;151.150;2022-08-23T06:59:09;11.50;99.90
44047;DHT22;29713;-33.888;151.150;2022-08-23T07:04:19;11.70;99.90
44047;DHT22;29713;-33.888;151.150;2022-08-23T07:06:47;11.70;99.90
44047;DHT22;29713;-33.888;151.150;2022-08-23T07:09:15;11.70;99.90
44047;DHT22;29713;-33.888;151.150;2022-08-23T07:11:44;11.70;99.90
44047;DHT22;29713;-33.888;151.150;2022-08-23T07:14:14;11.70;99.90
44047;DHT22;29713;-33.888;151.150;2022-08-23T07:16:49;11.70;99.90
44047;DHT22;29713;-33.888;151.150;2022-08-23T07:19:18;11.70;99.90
44047;DHT22;29713;-33.888;151.150;2022-08-23T07:21:46;11.70;99.90
44047;DHT22;29713;-33.888;151.150;2022-08-23T07:24:14;11.60;99.90
44047;DHT22;29713;-33.888;151.150;2022-08-23T07:26:43;11.60;99.90
44047;DHT22;29713;-33.888;151.150;2022-08-23T07:29:11;11.60;99.90
44047;DHT22;29713;-33.888;151.150;2022-08-23T07:31:42;11.60;99.90
44047;DHT22;29713;-33.888;151.150;2022-08-23T07:34:10;11.70;99.90
44047;DHT22;29713;-33.888;151.150;2022-08-23T07:36:39;11.60;99.90
44047;DHT22;29713;-33.888;151.150;2022-08-23T07:39:07;11.60;99.90
44047;DHT22;29713;-33.888;151.150;2022-08-23T07:41:36;11.60;99.90
44047;DHT22;29713;-33.888;151.150;2022-08-23T07:44:06;11.70;99.90
44047;DHT22;29713;-33.888;151.150;2022-08-23T07:46:34;11.70;99.90
44047;DHT22;29713;-33.888;151.150;2022-08-23T07:49:02;11.70;99.90
44047;DHT22;29713;-33.888;151.150;2022-08-23T07:51:31;11.70;99.90
44047;DHT22;29713;-33.888;151.150;2022-08-23T07:54:02;11.70;99.90
44047;DHT22;29713;-33.888;151.150;2022-08-23T07:56:30;11.70;99.90
44047;DHT22;29713;-33.888;151.150;2022-08-23T07:58:57;11.60;99.90
44047;DHT22;29713;-33.888;151.150;2022-08-23T08:01:28;11.40;99.90
44047;DHT22;29713;-33.888;151.150;2022-08-23T08:03:57;11.40;99.90
44047;DHT22;29713;-33.888;151.150;2022-08-23T08:06:42;11.40;99.90
44047;DHT22;29713;-33.888;151.150;2022-08-23T08:09:12;11.30;99.90
44047;DHT22;29713;-33.888;151.150;2022-08-23T08:11:42;11.30;99.90
44047;DHT22;29713;-33.888;151.150;2022-08-23T08:14:11;11.20;99.90
44047;DHT22;29713;-33.888;151.150;2022-08-23T08:16:43;11.10;99.90
44047;DHT22;29713;-33.888;151.150;2022-08-23T08:19:13;11.00;99.90
44047;DHT22;29713;-33.888;151.150;2022-08-23T08:21:41;10.90;99.90
44047;DHT22;29713;-33.888;151.150;2022-08-23T08:24:13;10.90;99.90
44047;DHT22;29713;-33.888;151.150;2022-08-23T08:26:42;10.90;99.90
44047;DHT22;29713;-33.888;151.150;2022-08-23T08:29:11;10.80;99.90
44047;DHT22;29713;-33.888;151.150;2022-08-23T08:31:40;10.80;99.90
44047;DHT22;29713;-33.888;151.150;2022-08-23T08:34:08;10.80;99.90
44047;DHT22;29713;-33.888;151.150;2022-08-23T08:36:37;10.70;99.90
44047;DHT22;29713;-33.888;151.150;2022-08-23T08:39:07;10.70;99.90
44047;DHT22;29713;-33.888;151.150;2022-08-23T08:42:03;10.70;99.90
44047;DHT22;29713;-33.888;151.150;2022-08-23T08:52:40;10.40;99.90
44047;DHT22;29713;-33.888;151.150;2022-08-23T08:55:21;10.30;99.90
44047;DHT22;29713;-33.888;151.150;2022-08-23T08:57:50;10.20;99.90
44047;DHT22;29713;-33.888;151.150;2022-08-23T09:00:23;10.10;99.90
44047;DHT22;29713;-33.888;151.150;2022-08-23T09:02:51;10.10;99.90
44047;DHT22;29713;-33.888;151.150;2022-08-23T09:05:32;10.10;99.90
44047;DHT22;29713;-33.888;151.150;2022-08-23T09:17:07;10.10;99.90
44047;DHT22;29713;-33.888;151.150;2022-08-23T09:19:41;10.00;99.90
44047;DHT22;29713;-33.888;151.150;2022-08-23T09:22:12;10.00;99.90
44047;DHT22;29713;-33.888;151.150;2022-08-23T09:24:41;10.00;99.90
44047;DHT22;29713;-33.888;151.150;2022-08-23T09:27:09;10.00;99.90
44047;DHT22;29713;-33.888;151.150;2022-08-23T09:29:39;10.10;99.90
44047;DHT22;29713;-33.888;151.150;2022-08-23T09:32:30;10.20;99.90
44047;DHT22;29713;-33.888;151.150;2022-08-23T09:35:10;10.30;99.90
44047;DHT22;29713;-33.888;151.150;2022-08-23T09:38:03;10.20;99.90
44047;DHT22;29713;-33.888;151.150;2022-08-23T09:40:45;10.10;99.90
44047;DHT22;29713;-33.888;151.150;2022-08-23T09:43:21;10.10;99.90
44047;DHT22;29713;-33.888;151.150;2022-08-23T09:48:42;9.90;99.90
44047;DHT22;29713;-33.888;151.150;2022-08-23T09:51:34;9.80;99.90
44047;DHT22;29713;-33.888;151.150;2022-08-23T09:54:20;9.70;99.90
44047;DHT22;29713;-33.888;151.150;2022-08-23T09:56:54;9.70;99.90
44047;DHT22;29713;-33.888;151.150;2022-08-23T09:59:43;9.70;99.90
44047;DHT22;29713;-33.888;151.150;2022-08-23T10:02:31;9.60;99.90
44047;DHT22;29713;-33.888;151.150;2022-08-23T10:07:44;9.70;99.90
44047;DHT22;29713;-33.888;151.150;2022-08-23T10:12:55;9.50;99.90
44047;DHT22;29713;-33.888;151.150;2022-08-23T10:21:41;9.50;99.90
44047;DHT22;29713;-33.888;151.150;2022-08-23T10:27:38;9.60;99.90
44047;DHT22;29713;-33.888;151.150;2022-08-23T10:34:18;9.50;99.90
44047;DHT22;29713;-33.888;151.150;2022-08-23T10:36:30;9.50;99.90
44047;DHT22;29713;-33.888;151.150;2022-08-23T10:39:02;9.40;99.90
44047;DHT22;29713;-33.888;151.150;2022-08-23T10:44:38;9.50;99.90
44047;DHT22;29713;-33.888;151.150;2022-08-23T10:49:53;9.40;99.90
44047;DHT22;29713;-33.888;151.150;2022-08-23T10:52:50;9.30;99.90
44047;DHT22;29713;-33.888;151.150;2022-08-23T10:55:25;9.40;99.90
44047;DHT22;29713;-33.888;151.150;2022-08-23T10:58:15;9.40;99.90
44047;DHT22;29713;-33.888;151.150;2022-08-23T11:00:46;9.40;99.90
44047;DHT22;29713;-33.888;151.150;2022-08-23T11:03:40;9.50;99.90
44047;DHT22;29713;-33.888;151.150;2022-08-23T11:14:46;9.60;99.90
44047;DHT22;29713;-33.888;151.150;2022-08-23T11:19:58;9.50;99.90
44047;DHT22;29713;-33.888;151.150;2022-08-23T11:22:28;9.50;99.90
44047;DHT22;29713;-33.888;151.150;2022-08-23T11:24:59;9.50;99.90
44047;DHT22;29713;-33.888;151.150;2022-08-23T11:27:33;9.50;99.90
44047;DHT22;29713;-33.888;151.150;2022-08-23T11:33:20;9.50;99.90
44047;DHT22;29713;-33.888;151.150;2022-08-23T11:36:03;9.50;99.90
44047;DHT22;29713;-33.888;151.150;2022-08-23T11:54:39;9.20;99.90
44047;DHT22;29713;-33.888;151.150;2022-08-23T12:00:26;9.20;99.90
44047;DHT22;29713;-33.888;151.150;2022-08-23T12:03:05;9.20;99.90
44047;DHT22;29713;-33.888;151.150;2022-08-23T12:16:07;9.40;99.90
44047;DHT22;29713;-33.888;151.150;2022-08-23T12:24:14;9.50;99.90
44047;DHT22;29713;-33.888;151.150;2022-08-23T12:26:52;9.50;99.90
44047;DHT22;29713;-33.888;151.150;2022-08-23T12:32:12;9.50;99.90
44047;DHT22;29713;-33.888;151.150;2022-08-23T12:37:42;9.40;99.90
44047;DHT22;29713;-33.888;151.150;2022-08-23T12:40:15;9.40;99.90
44047;DHT22;29713;-33.888;151.150;2022-08-23T12:42:47;9.40;99.90
44047;DHT22;29713;-33.888;151.150;2022-08-23T12:45:21;9.30;99.90
44047;DHT22;29713;-33.888;151.150;2022-08-23T12:47:58;9.40;99.90
44047;DHT22;29713;-33.888;151.150;2022-08-23T12:50:35;9.40;99.90
44047;DHT22;29713;-33.888;151.150;2022-08-23T12:53:15;9.50;99.90
44047;DHT22;29713;-33.888;151.150;2022-08-23T12:55:46;9.50;99.90
44047;DHT22;29713;-33.888;151.150;2022-08-23T12:58:15;9.50;99.90
44047;DHT22;29713;-33.888;151.150;2022-08-23T13:00:58;9.50;99.90
44047;DHT22;29713;-33.888;151.150;2022-08-23T13:03:39;9.50;99.90
44047;DHT22;29713;-33.888;151.150;2022-08-23T13:06:21;9.50;99.90
44047;DHT22;29713;-33.888;151.150;2022-08-23T13:08:56;9.50;99.90
44047;DHT22;29713;-33.888;151.150;2022-08-23T13:11:28;9.40;99.90
44047;DHT22;29713;-33.888;151.150;2022-08-23T13:13:56;9.40;99.90
44047;DHT22;29713;-33.888;151.150;2022-08-23T13:19:29;9.40;99.90
44047;DHT22;29713;-33.888;151.150;2022-08-23T13:24:42;9.50;99.90
44047;DHT22;29713;-33.888;151.150;2022-08-23T13:27:16;9.50;99.90
44047;DHT22;29713;-33.888;151.150;2022-08-23T13:32:39;9.60;99.90
44047;DHT22;29713;-33.888;151.150;2022-08-23T13:46:20;9.70;99.90
44047;DHT22;29713;-33.888;151.150;2022-08-23T13:51:37;9.60;99.90
44047;DHT22;29713;-33.888;151.150;2022-08-23T13:54:12;9.70;99.90
44047;DHT22;29713;-33.888;151.150;2022-08-23T13:56:50;9.70;99.90
44047;DHT22;29713;-33.888;151.150;2022-08-23T13:59:32;9.70;99.90
44047;DHT22;29713;-33.888;151.150;2022-08-23T14:02:07;9.70;99.90
44047;DHT22;29713;-33.888;151.150;2022-08-23T14:04:37;9.70;99.90
44047;DHT22;29713;-33.888;151.150;2022-08-23T14:07:05;9.80;99.90
44047;DHT22;29713;-33.888;151.150;2022-08-23T14:09:33;9.80;99.90
44047;DHT22;29713;-33.888;151.150;2022-08-23T14:12:05;9.80;99.90
44047;DHT22;29713;-33.888;151.150;2022-08-23T14:14:34;9.80;99.90
44047;DHT22;29713;-33.888;151.150;2022-08-23T14:17:02;9.80;99.90
44047;DHT22;29713;-33.888;151.150;2022-08-23T14:19:30;9.90;99.90
44047;DHT22;29713;-33.888;151.150;2022-08-23T14:21:58;9.90;99.90
44047;DHT22;29713;-33.888;151.150;2022-08-23T14:24:26;10.00;99.90
44047;DHT22;29713;-33.888;151.150;2022-08-23T14:26:55;10.00;99.90
44047;DHT22;29713;-33.888;151.150;2022-08-23T14:29:24;9.90;99.90
44047;DHT22;29713;-33.888;151.150;2022-08-23T14:31:54;10.00;99.90
44047;DHT22;29713;-33.888;151.150;2022-08-23T14:34:21;10.00;99.90
44047;DHT22;29713;-33.888;151.150;2022-08-23T14:36:49;10.00;99.90
44047;DHT22;29713;-33.888;151.150;2022-08-23T14:39:17;10.10;99.90
44047;DHT22;29713;-33.888;151.150;2022-08-23T14:41:46;10.10;99.90
44047;DHT22;29713;-33.888;151.150;2022-08-23T14:44:14;10.10;99.90
44047;DHT22;29713;-33.888;151.150;2022-08-23T14:46:43;10.10;99.90
44047;DHT22;29713;-33.888;151.150;2022-08-23T14:49:12;10.10;99.90
44047;DHT22;29713;-33.888;151.150;2022-08-23T14:51:43;10.10;99.90
44047;DHT22;29713;-33.888;151.150;2022-08-23T14:54:16;10.20;99.90
44047;DHT22;29713;-33.888;151.150;2022-08-23T14:56:44;10.10;99.90
44047;DHT22;29713;-33.888;151.150;2022-08-23T14:59:11;10.20;99.90
44047;DHT22;29713;-33.888;151.150;2022-08-23T15:01:39;10.20;99.90
44047;DHT22;29713;-33.888;151.150;2022-08-23T15:04:07;10.20;99.90
44047;DHT22;29713;-33.888;151.150;2022-08-23T15:06:35;10.10;99.90
44047;DHT22;29713;-33.888;151.150;2022-08-23T15:09:02;10.10;99.90
44047;DHT22;29713;-33.888;151.150;2022-08-23T15:11:29;10.10;99.90
44047;DHT22;29713;-33.888;151.150;2022-08-23T15:13:57;10.20;99.90
44047;DHT22;29713;-33.888;151.150;2022-08-23T15:16:25;10.20;99.90
44047;DHT22;29713;-33.888;151.150;2022-08-23T15:18:52;10.20;99.90
44047;DHT22;29713;-33.888;151.150;2022-08-23T15:21:21;10.20;99.90
44047;DHT22;29713;-33.888;151.150;2022-08-23T15:23:48;10.20;99.90
44047;DHT22;29713;-33.888;151.150;2022-08-23T15:26:21;10.20;99.90
44047;DHT22;29713;-33.888;151.150;2022-08-23T15:28:49;10.20;99.90
44047;DHT22;29713;-33.888;151.150;2022-08-23T15:31:18;10.10;99.90
44047;DHT22;29713;-33.888;151.150;2022-08-23T15:33:45;10.10;99.90
44047;DHT22;29713;-33.888;151.150;2022-08-23T15:36:14;10.10;99.90
44047;DHT22;29713;-33.888;151.150;2022-08-23T15:38:43;10.10;99.90
44047;DHT22;29713;-33.888;151.150;2022-08-23T15:41:14;10.20;99.90
44047;DHT22;29713;-33.888;151.150;2022-08-23T15:43:42;10.20;99.90
44047;DHT22;29713;-33.888;151.150;2022-08-23T15:46:15;10.20;99.90
44047;DHT22;29713;-33.888;151.150;2022-08-23T15:48:58;10.20;99.90
44047;DHT22;29713;-33.888;151.150;2022-08-23T15:51:28;10.20;99.90
44047;DHT22;29713;-33.888;151.150;2022-08-23T15:53:55;10.20;99.90
44047;DHT22;29713;-33.888;151.150;2022-08-23T15:56:34;10.30;99.90
44047;DHT22;29713;-33.888;151.150;2022-08-23T15:59:03;10.30;99.90
44047;DHT22;29713;-33.888;151.150;2022-08-23T16:01:30;10.30;99.90
44047;DHT22;29713;-33.888;151.150;2022-08-23T16:03:59;10.20;99.90
44047;DHT22;29713;-33.888;151.150;2022-08-23T16:06:28;10.20;99.90
44047;DHT22;29713;-33.888;151.150;2022-08-23T16:08:56;10.20;99.90
44047;DHT22;29713;-33.888;151.150;2022-08-23T16:11:23;10.20;99.90
44047;DHT22;29713;-33.888;151.150;2022-08-23T16:13:50;10.20;99.90
44047;DHT22;29713;-33.888;151.150;2022-08-23T16:16:26;10.10;99.90
44047;DHT22;29713;-33.888;151.150;2022-08-23T16:18:56;10.20;99.90
44047;DHT22;29713;-33.888;151.150;2022-08-23T16:21:25;10.20;99.90
44047;DHT22;29713;-33.888;151.150;2022-08-23T16:23:54;10.20;99.90
44047;DHT22;29713;-33.888;151.150;2022-08-23T16:26:26;10.20;99.90
44047;DHT22;29713;-33.888;151.150;2022-08-23T16:28:55;10.30;99.90
44047;DHT22;29713;-33.888;151.150;2022-08-23T16:31:23;10.20;99.90
44047;DHT22;29713;-33.888;151.150;2022-08-23T16:33:59;10.20;99.90
44047;DHT22;29713;-33.888;151.150;2022-08-23T16:36:26;10.20;99.90
44047;DHT22;29713;-33.888;151.150;2022-08-23T16:38:54;10.20;99.90
44047;DHT22;29713;-33.888;151.150;2022-08-23T16:41:22;10.20;99.90
44047;DHT22;29713;-33.888;151.150;2022-08-23T16:43:50;10.20;99.90
44047;DHT22;29713;-33.888;151.150;2022-08-23T16:46:19;10.20;99.90
44047;DHT22;29713;-33.888;151.150;2022-08-23T16:48:47;10.20;99.90
44047;DHT22;29713;-33.888;151.150;2022-08-23T16:51:15;10.10;99.90
44047;DHT22;29713;-33.888;151.150;2022-08-23T16:53:43;10.10;99.90
44047;DHT22;29713;-33.888;151.150;2022-08-23T16:56:10;10.00;99.90
44047;DHT22;29713;-33.888;151.150;2022-08-23T16:58:38;10.10;99.90
44047;DHT22;29713;-33.888;151.150;2022-08-23T17:01:10;10.10;99.90
44047;DHT22;29713;-33.888;151.150;2022-08-23T17:03:42;10.10;99.90
44047;DHT22;29713;-33.888;151.150;2022-08-23T17:06:10;10.00;99.90
44047;DHT22;29713;-33.888;151.150;2022-08-23T17:08:37;10.00;99.90
44047;DHT22;29713;-33.888;151.150;2022-08-23T17:11:06;10.00;99.90
44047;DHT22;29713;-33.888;151.150;2022-08-23T17:13:36;10.00;99.90
44047;DHT22;29713;-33.888;151.150;2022-08-23T17:16:04;10.00;99.90
44047;DHT22;29713;-33.888;151.150;2022-08-23T17:18:32;9.90;99.90